sensor_id;sensor_type;location;lat;lon;timestamp;temperature;humidity
64997;SHT31;51545;51.568;6.998;2022-12-05T00:00:06;2.71;94.87
64997;SHT31;51545;51.568;6.998;2022-12-05T00:02:32;2.68;95.05
64997;SHT31;51545;51.568;6.998;2022-12-05T00:04:58;2.70;95.18
64997;SHT31;51545;51.568;6.998;2022-12-05T00:07:23;2.70;95.19
64997;SHT31;51545;51.568;6.998;2022-12-05T00:09:49;2.74;95.22
64997;SHT31;51545;51.568;6.998;2022-12-05T00:12:14;2.71;95.20
64997;SHT31;51545;51.568;6.998;2022-12-05T00:14:40;2.68;95.27
64997;SHT31;51545;51.568;6.998;2022-12-05T00:17:05;2.67;95.35
64997;SHT31;51545;51.568;6.998;2022-12-05T00:19:31;2.66;95.47
64997;SHT31;51545;51.568;6.998;2022-12-05T00:21:56;2.66;95.64
64997;SHT31;51545;51.568;6.998;2022-12-05T00:24:22;2.66;95.59
64997;SHT31;51545;51.568;6.998;2022-12-05T00:26:47;2.61;95.64
64997;SHT31;51545;51.568;6.998;2022-12-05T00:29:13;2.60;95.79
64997;SHT31;51545;51.568;6.998;2022-12-05T00:31:38;2.58;95.90
64997;SHT31;51545;51.568;6.998;2022-12-05T00:34:04;2.60;96.18
64997;SHT31;51545;51.568;6.998;2022-12-05T00:36:30;2.61;96.15
64997;SHT31;51545;51.568;6.998;2022-12-05T00:38:58;2.60;96.22
64997;SHT31;51545;51.568;6.998;2022-12-05T00:41:25;2.66;96.30
64997;SHT31;51545;51.568;6.998;2022-12-05T00:43:52;2.64;96.34
64997;SHT31;51545;51.568;6.998;2022-12-05T00:46:19;2.67;96.47
64997;SHT31;51545;51.568;6.998;2022-12-05T00:48:46;2.68;96.42
64997;SHT31;51545;51.568;6.998;2022-12-05T00:51:31;2.73;96.44
64997;SHT31;51545;51.568;6.998;2022-12-05T00:53:59;2.68;96.35
64997;SHT31;51545;51.568;6.998;2022-12-05T00:56:27;2.64;96.52
64997;SHT31;51545;51.568;6.998;2022-12-05T00:58:54;2.66;96.62
64997;SHT31;51545;51.568;6.998;2022-12-05T01:01:22;2.63;96.76
64997;SHT31;51545;51.568;6.998;2022-12-05T01:03:54;2.67;96.90
64997;SHT31;51545;51.568;6.998;2022-12-05T01:06:22;2.63;97.09
64997;SHT31;51545;51.568;6.998;2022-12-05T01:08:49;2.63;97.13
64997;SHT31;51545;51.568;6.998;2022-12-05T01:11:15;2.64;97.11
64997;SHT31;51545;51.568;6.998;2022-12-05T01:13:42;2.67;97.26
64997;SHT31;51545;51.568;6.998;2022-12-05T01:16:15;2.60;97.23
64997;SHT31;51545;51.568;6.998;2022-12-05T01:18:44;2.64;97.32
64997;SHT31;51545;51.568;6.998;2022-12-05T01:21:10;2.67;97.38
64997;SHT31;51545;51.568;6.998;2022-12-05T01:23:36;2.66;97.30
64997;SHT31;51545;51.568;6.998;2022-12-05T01:26:04;2.67;97.43
64997;SHT31;51545;51.568;6.998;2022-12-05T01:28:32;2.61;97.56
64997;SHT31;51545;51.568;6.998;2022-12-05T01:30:58;2.64;97.59
64997;SHT31;51545;51.568;6.998;2022-12-05T01:33:30;2.64;97.64
64997;SHT31;51545;51.568;6.998;2022-12-05T01:35:56;2.68;97.69
64997;SHT31;51545;51.568;6.998;2022-12-05T01:38:21;2.67;97.71
64997;SHT31;51545;51.568;6.998;2022-12-05T01:40:47;2.66;97.75
64997;SHT31;51545;51.568;6.998;2022-12-05T01:43:14;2.64;97.88
64997;SHT31;51545;51.568;6.998;2022-12-05T01:45:41;2.71;98.04
64997;SHT31;51545;51.568;6.998;2022-12-05T01:48:10;2.67;98.01
64997;SHT31;51545;51.568;6.998;2022-12-05T01:50:46;2.67;98.18
64997;SHT31;51545;51.568;6.998;2022-12-05T01:53:13;2.66;98.17
64997;SHT31;51545;51.568;6.998;2022-12-05T01:55:40;2.71;98.30
64997;SHT31;51545;51.568;6.998;2022-12-05T01:58:06;2.75;98.28
64997;SHT31;51545;51.568;6.998;2022-12-05T02:00:33;2.67;98.28
64997;SHT31;51545;51.568;6.998;2022-12-05T02:02:59;2.63;98.50
64997;SHT31;51545;51.568;6.998;2022-12-05T02:05:30;2.68;98.64
64997;SHT31;51545;51.568;6.998;2022-12-05T02:08:00;2.68;98.63
64997;SHT31;51545;51.568;6.998;2022-12-05T02:10:50;2.71;98.62
64997;SHT31;51545;51.568;6.998;2022-12-05T02:13:27;2.74;98.62
64997;SHT31;51545;51.568;6.998;2022-12-05T02:19:40;2.67;98.54
64997;SHT31;51545;51.568;6.998;2022-12-05T02:24:52;2.63;98.75
64997;SHT31;51545;51.568;6.998;2022-12-05T02:30:08;2.61;98.86
64997;SHT31;51545;51.568;6.998;2022-12-05T02:32:52;2.60;98.91
64997;SHT31;51545;51.568;6.998;2022-12-05T02:35:40;2.66;99.01
64997;SHT31;51545;51.568;6.998;2022-12-05T02:44:18;2.66;99.06
64997;SHT31;51545;51.568;6.998;2022-12-05T02:46:46;2.64;99.09
64997;SHT31;51545;51.568;6.998;2022-12-05T02:49:18;2.68;99.13
64997;SHT31;51545;51.568;6.998;2022-12-05T02:51:51;2.71;99.09
64997;SHT31;51545;51.568;6.998;2022-12-05T02:54:23;2.61;99.00
64997;SHT31;51545;51.568;6.998;2022-12-05T02:56:52;2.61;99.10
64997;SHT31;51545;51.568;6.998;2022-12-05T02:59:20;2.66;99.07
64997;SHT31;51545;51.568;6.998;2022-12-05T03:01:46;2.57;99.11
64997;SHT31;51545;51.568;6.998;2022-12-05T03:04:12;2.64;99.21
64997;SHT31;51545;51.568;6.998;2022-12-05T03:06:41;2.63;99.06
64997;SHT31;51545;51.568;6.998;2022-12-05T03:09:14;2.60;99.08
64997;SHT31;51545;51.568;6.998;2022-12-05T03:11:46;2.66;99.17
64997;SHT31;51545;51.568;6.998;2022-12-05T03:14:22;2.70;99.20
64997;SHT31;51545;51.568;6.998;2022-12-05T03:16:53;2.63;99.12
64997;SHT31;51545;51.568;6.998;2022-12-05T03:19:24;2.63;99.16
64997;SHT31;51545;51.568;6.998;2022-12-05T03:22:09;2.70;99.24
64997;SHT31;51545;51.568;6.998;2022-12-05T03:24:41;2.78;99.22
64997;SHT31;51545;51.568;6.998;2022-12-05T03:37:44;2.70;98.96
64997;SHT31;51545;51.568;6.998;2022-12-05T03:51:49;2.80;98.79
64997;SHT31;51545;51.568;6.998;2022-12-05T03:54:24;2.68;98.70
64997;SHT31;51545;51.568;6.998;2022-12-05T03:56:55;2.74;98.84
64997;SHT31;51545;51.568;6.998;2022-12-05T03:59:47;2.80;98.89
64997;SHT31;51545;51.568;6.998;2022-12-05T04:05:29;2.70;98.78
64997;SHT31;51545;51.568;6.998;2022-12-05T04:08:00;2.64;98.80
64997;SHT31;51545;51.568;6.998;2022-12-05T04:10:30;2.64;99.08
64997;SHT31;51545;51.568;6.998;2022-12-05T04:13:12;2.73;99.14
64997;SHT31;51545;51.568;6.998;2022-12-05T04:15:50;2.71;99.09
64997;SHT31;51545;51.568;6.998;2022-12-05T04:18:44;2.74;99.07
64997;SHT31;51545;51.568;6.998;2022-12-05T04:21:16;2.74;99.04
64997;SHT31;51545;51.568;6.998;2022-12-05T04:24:07;2.80;99.13
64997;SHT31;51545;51.568;6.998;2022-12-05T04:27:02;2.81;99.07
64997;SHT31;51545;51.568;6.998;2022-12-05T04:29:36;2.77;98.95
64997;SHT31;51545;51.568;6.998;2022-12-05T04:32:07;2.77;99.01
64997;SHT31;51545;51.568;6.998;2022-12-05T04:34:37;2.74;99.05
64997;SHT31;51545;51.568;6.998;2022-12-05T04:37:11;2.80;99.16
64997;SHT31;51545;51.568;6.998;2022-12-05T04:39:45;2.87;99.20
64997;SHT31;51545;51.568;6.998;2022-12-05T04:42:18;2.81;99.17
64997;SHT31;51545;51.568;6.998;2022-12-05T04:44:52;2.84;99.21
64997;SHT31;51545;51.568;6.998;2022-12-05T04:47:23;2.85;99.15
64997;SHT31;51545;51.568;6.998;2022-12-05T04:49:54;2.81;99.07
64997;SHT31;51545;51.568;6.998;2022-12-05T04:52:20;2.83;99.04
64997;SHT31;51545;51.568;6.998;2022-12-05T04:54:48;2.83;99.02
64997;SHT31;51545;51.568;6.998;2022-12-05T04:57:26;2.80;99.02
64997;SHT31;51545;51.568;6.998;2022-12-05T04:59:55;2.68;98.95
64997;SHT31;51545;51.568;6.998;2022-12-05T05:02:23;2.68;99.04
64997;SHT31;51545;51.568;6.998;2022-12-05T05:04:56;2.74;99.18
64997;SHT31;51545;51.568;6.998;2022-12-05T05:07:25;2.81;99.24
64997;SHT31;51545;51.568;6.998;2022-12-05T05:09:50;2.81;99.19
64997;SHT31;51545;51.568;6.998;2022-12-05T05:12:16;2.83;99.19
64997;SHT31;51545;51.568;6.998;2022-12-05T05:14:42;2.87;99.24
64997;SHT31;51545;51.568;6.998;2022-12-05T05:17:07;2.88;99.20
64997;SHT31;51545;51.568;6.998;2022-12-05T05:19:33;2.80;99.15
64997;SHT31;51545;51.568;6.998;2022-12-05T05:21:58;2.84;99.24
64997;SHT31;51545;51.568;6.998;2022-12-05T05:24:24;2.85;99.25
64997;SHT31;51545;51.568;6.998;2022-12-05T05:26:50;2.87;99.29
64997;SHT31;51545;51.568;6.998;2022-12-05T05:29:16;2.88;99.29
64997;SHT31;51545;51.568;6.998;2022-12-05T05:31:42;2.89;99.32
64997;SHT31;51545;51.568;6.998;2022-12-05T05:34:08;2.84;99.24
64997;SHT31;51545;51.568;6.998;2022-12-05T05:36:34;2.78;99.11
64997;SHT31;51545;51.568;6.998;2022-12-05T05:39:00;2.81;99.18
64997;SHT31;51545;51.568;6.998;2022-12-05T05:41:28;2.80;99.20
64997;SHT31;51545;51.568;6.998;2022-12-05T05:43:56;2.84;99.20
64997;SHT31;51545;51.568;6.998;2022-12-05T05:46:23;2.78;99.19
64997;SHT31;51545;51.568;6.998;2022-12-05T05:48:50;2.73;99.20
64997;SHT31;51545;51.568;6.998;2022-12-05T05:51:17;2.70;99.32
64997;SHT31;51545;51.568;6.998;2022-12-05T05:53:43;2.70;99.33
64997;SHT31;51545;51.568;6.998;2022-12-05T05:56:10;2.71;99.39
64997;SHT31;51545;51.568;6.998;2022-12-05T05:58:38;2.63;99.32
64997;SHT31;51545;51.568;6.998;2022-12-05T06:01:09;2.67;99.36
64997;SHT31;51545;51.568;6.998;2022-12-05T06:03:36;2.67;99.40
64997;SHT31;51545;51.568;6.998;2022-12-05T06:06:03;2.60;99.31
64997;SHT31;51545;51.568;6.998;2022-12-05T06:08:32;2.53;99.24
64997;SHT31;51545;51.568;6.998;2022-12-05T06:10:59;2.53;99.26
64997;SHT31;51545;51.568;6.998;2022-12-05T06:13:28;2.52;99.26
64997;SHT31;51545;51.568;6.998;2022-12-05T06:15:53;2.50;99.32
64997;SHT31;51545;51.568;6.998;2022-12-05T06:18:19;2.54;99.33
64997;SHT31;51545;51.568;6.998;2022-12-05T06:21:03;2.53;99.28
64997;SHT31;51545;51.568;6.998;2022-12-05T06:23:32;2.52;99.23
64997;SHT31;51545;51.568;6.998;2022-12-05T06:25:58;2.49;99.21
64997;SHT31;51545;51.568;6.998;2022-12-05T06:28:24;2.47;99.23
64997;SHT31;51545;51.568;6.998;2022-12-05T06:30:50;2.38;99.14
64997;SHT31;51545;51.568;6.998;2022-12-05T06:33:16;2.42;99.27
64997;SHT31;51545;51.568;6.998;2022-12-05T06:35:42;2.47;99.30
64997;SHT31;51545;51.568;6.998;2022-12-05T06:38:08;2.39;99.15
64997;SHT31;51545;51.568;6.998;2022-12-05T06:40:34;2.40;99.23
64997;SHT31;51545;51.568;6.998;2022-12-05T06:43:03;2.35;99.26
64997;SHT31;51545;51.568;6.998;2022-12-05T06:45:28;2.36;99.32
64997;SHT31;51545;51.568;6.998;2022-12-05T06:47:54;2.40;99.32
64997;SHT31;51545;51.568;6.998;2022-12-05T06:50:19;2.47;99.27
64997;SHT31;51545;51.568;6.998;2022-12-05T06:52:45;2.47;99.23
64997;SHT31;51545;51.568;6.998;2022-12-05T06:55:10;2.46;99.16
64997;SHT31;51545;51.568;6.998;2022-12-05T06:57:36;2.53;99.18
64997;SHT31;51545;51.568;6.998;2022-12-05T07:00:02;2.52;99.15
64997;SHT31;51545;51.568;6.998;2022-12-05T07:02:50;2.52;99.08
64997;SHT31;51545;51.568;6.998;2022-12-05T07:05:16;2.50;99.01
64997;SHT31;51545;51.568;6.998;2022-12-05T07:07:42;2.39;98.92
64997;SHT31;51545;51.568;6.998;2022-12-05T07:10:07;2.40;99.03
64997;SHT31;51545;51.568;6.998;2022-12-05T07:12:33;2.43;99.07
64997;SHT31;51545;51.568;6.998;2022-12-05T07:14:59;2.46;99.12
64997;SHT31;51545;51.568;6.998;2022-12-05T07:17:24;2.40;99.05
64997;SHT31;51545;51.568;6.998;2022-12-05T07:19:50;2.38;99.02
64997;SHT31;51545;51.568;6.998;2022-12-05T07:22:17;2.38;99.11
64997;SHT31;51545;51.568;6.998;2022-12-05T07:24:44;2.36;99.03
64997;SHT31;51545;51.568;6.998;2022-12-05T07:27:10;2.23;98.83
64997;SHT31;51545;51.568;6.998;2022-12-05T07:29:36;2.18;98.73
64997;SHT31;51545;51.568;6.998;2022-12-05T07:32:02;1.98;98.52
64997;SHT31;51545;51.568;6.998;2022-12-05T07:34:28;1.88;98.57
64997;SHT31;51545;51.568;6.998;2022-12-05T07:36:53;1.85;98.54
64997;SHT31;51545;51.568;6.998;2022-12-05T07:39:19;1.78;98.46
64997;SHT31;51545;51.568;6.998;2022-12-05T07:41:44;1.70;98.41
64997;SHT31;51545;51.568;6.998;2022-12-05T07:44:10;1.66;98.45
64997;SHT31;51545;51.568;6.998;2022-12-05T07:46:37;1.62;98.43
64997;SHT31;51545;51.568;6.998;2022-12-05T07:49:04;1.60;98.46
64997;SHT31;51545;51.568;6.998;2022-12-05T07:51:34;1.62;98.61
64997;SHT31;51545;51.568;6.998;2022-12-05T07:54:00;1.67;98.64
64997;SHT31;51545;51.568;6.998;2022-12-05T07:56:25;1.66;98.61
64997;SHT31;51545;51.568;6.998;2022-12-05T07:58:51;1.63;98.56
64997;SHT31;51545;51.568;6.998;2022-12-05T08:01:20;1.64;98.66
64997;SHT31;51545;51.568;6.998;2022-12-05T08:03:48;1.63;98.62
64997;SHT31;51545;51.568;6.998;2022-12-05T08:06:18;1.68;98.76
64997;SHT31;51545;51.568;6.998;2022-12-05T08:08:45;1.71;98.76
64997;SHT31;51545;51.568;6.998;2022-12-05T08:11:15;1.67;98.61
64997;SHT31;51545;51.568;6.998;2022-12-05T08:13:42;1.73;98.75
64997;SHT31;51545;51.568;6.998;2022-12-05T08:16:10;1.74;98.79
64997;SHT31;51545;51.568;6.998;2022-12-05T08:18:37;1.77;98.69
64997;SHT31;51545;51.568;6.998;2022-12-05T08:21:10;1.85;98.79
64997;SHT31;51545;51.568;6.998;2022-12-05T08:23:37;1.90;98.77
64997;SHT31;51545;51.568;6.998;2022-12-05T08:26:06;1.90;98.75
64997;SHT31;51545;51.568;6.998;2022-12-05T08:28:35;1.98;98.69
64997;SHT31;51545;51.568;6.998;2022-12-05T08:33:37;1.98;98.55
64997;SHT31;51545;51.568;6.998;2022-12-05T08:36:03;1.90;98.39
64997;SHT31;51545;51.568;6.998;2022-12-05T08:38:31;1.81;98.32
64997;SHT31;51545;51.568;6.998;2022-12-05T08:40:59;1.94;98.60
64997;SHT31;51545;51.568;6.998;2022-12-05T08:43:29;2.05;98.66
64997;SHT31;51545;51.568;6.998;2022-12-05T08:45:55;2.11;98.69
64997;SHT31;51545;51.568;6.998;2022-12-05T08:48:21;2.23;98.66
64997;SHT31;51545;51.568;6.998;2022-12-05T08:50:47;2.25;98.48
64997;SHT31;51545;51.568;6.998;2022-12-05T08:53:13;2.16;98.27
64997;SHT31;51545;51.568;6.998;2022-12-05T08:55:39;2.19;98.29
64997;SHT31;51545;51.568;6.998;2022-12-05T08:58:04;2.30;98.34
64997;SHT31;51545;51.568;6.998;2022-12-05T09:00:30;2.26;98.23
64997;SHT31;51545;51.568;6.998;2022-12-05T09:02:56;2.23;98.22
64997;SHT31;51545;51.568;6.998;2022-12-05T09:05:22;2.26;98.22
64997;SHT31;51545;51.568;6.998;2022-12-05T09:07:48;2.28;98.16
64997;SHT31;51545;51.568;6.998;2022-12-05T09:10:14;2.32;98.26
64997;SHT31;51545;51.568;6.998;2022-12-05T09:12:40;2.29;98.21
64997;SHT31;51545;51.568;6.998;2022-12-05T09:15:05;2.42;98.35
64997;SHT31;51545;51.568;6.998;2022-12-05T09:17:32;2.43;98.13
64997;SHT31;51545;51.568;6.998;2022-12-05T09:19:58;2.38;97.97
64997;SHT31;51545;51.568;6.998;2022-12-05T09:22:24;2.36;97.85
64997;SHT31;51545;51.568;6.998;2022-12-05T09:24:49;2.30;97.79
64997;SHT31;51545;51.568;6.998;2022-12-05T09:27:15;2.40;97.95
64997;SHT31;51545;51.568;6.998;2022-12-05T09:29:40;2.42;97.90
64997;SHT31;51545;51.568;6.998;2022-12-05T09:32:07;2.46;97.89
64997;SHT31;51545;51.568;6.998;2022-12-05T09:34:33;2.56;98.03
64997;SHT31;51545;51.568;6.998;2022-12-05T09:36:59;2.63;97.99
64997;SHT31;51545;51.568;6.998;2022-12-05T09:39:26;2.64;97.79
64997;SHT31;51545;51.568;6.998;2022-12-05T09:42:05;2.71;97.71
64997;SHT31;51545;51.568;6.998;2022-12-05T09:45:03;2.50;97.25
64997;SHT31;51545;51.568;6.998;2022-12-05T09:47:40;2.66;97.55
64997;SHT31;51545;51.568;6.998;2022-12-05T09:52:52;2.64;97.36
64997;SHT31;51545;51.568;6.998;2022-12-05T09:55:24;2.71;97.41
64997;SHT31;51545;51.568;6.998;2022-12-05T09:57:59;2.57;97.07
64997;SHT31;51545;51.568;6.998;2022-12-05T10:00:28;2.56;97.10
64997;SHT31;51545;51.568;6.998;2022-12-05T10:11:45;2.66;97.14
64997;SHT31;51545;51.568;6.998;2022-12-05T10:17:37;2.80;97.32
64997;SHT31;51545;51.568;6.998;2022-12-05T10:22:42;2.83;97.20
64997;SHT31;51545;51.568;6.998;2022-12-05T10:25:12;2.84;97.05
64997;SHT31;51545;51.568;6.998;2022-12-05T10:27:50;2.77;96.88
64997;SHT31;51545;51.568;6.998;2022-12-05T10:30:18;2.85;97.19
64997;SHT31;51545;51.568;6.998;2022-12-05T10:32:58;2.89;97.06
64997;SHT31;51545;51.568;6.998;2022-12-05T10:35:33;2.87;96.94
64997;SHT31;51545;51.568;6.998;2022-12-05T10:38:09;2.89;96.92
64997;SHT31;51545;51.568;6.998;2022-12-05T10:40:43;2.91;96.82
64997;SHT31;51545;51.568;6.998;2022-12-05T10:43:15;2.88;96.67
64997;SHT31;51545;51.568;6.998;2022-12-05T10:45:52;2.85;96.68
64997;SHT31;51545;51.568;6.998;2022-12-05T10:48:18;2.91;96.85
64997;SHT31;51545;51.568;6.998;2022-12-05T10:50:45;2.89;96.61
64997;SHT31;51545;51.568;6.998;2022-12-05T10:53:17;2.94;96.71
64997;SHT31;51545;51.568;6.998;2022-12-05T10:55:47;2.96;96.66
64997;SHT31;51545;51.568;6.998;2022-12-05T10:58:18;2.91;96.57
64997;SHT31;51545;51.568;6.998;2022-12-05T11:00:52;2.92;96.72
64997;SHT31;51545;51.568;6.998;2022-12-05T11:03:24;2.94;96.75
64997;SHT31;51545;51.568;6.998;2022-12-05T11:05:53;2.91;96.76
64997;SHT31;51545;51.568;6.998;2022-12-05T11:08:28;2.95;96.71
64997;SHT31;51545;51.568;6.998;2022-12-05T11:11:05;2.95;96.57
64997;SHT31;51545;51.568;6.998;2022-12-05T11:13:32;2.94;96.51
64997;SHT31;51545;51.568;6.998;2022-12-05T11:15:59;3.01;96.68
64997;SHT31;51545;51.568;6.998;2022-12-05T11:18:30;2.98;96.51
64997;SHT31;51545;51.568;6.998;2022-12-05T11:21:07;2.88;96.40
64997;SHT31;51545;51.568;6.998;2022-12-05T11:23:34;2.77;96.34
64997;SHT31;51545;51.568;6.998;2022-12-05T11:26:00;2.68;96.42
64997;SHT31;51545;51.568;6.998;2022-12-05T11:28:30;2.64;96.65
64997;SHT31;51545;51.568;6.998;2022-12-05T11:31:18;2.71;96.91
64997;SHT31;51545;51.568;6.998;2022-12-05T11:34:00;2.80;97.00
64997;SHT31;51545;51.568;6.998;2022-12-05T11:39:25;2.87;96.89
64997;SHT31;51545;51.568;6.998;2022-12-05T11:45:56;2.81;96.92
64997;SHT31;51545;51.568;6.998;2022-12-05T11:48:16;2.75;96.87
64997;SHT31;51545;51.568;6.998;2022-12-05T11:56:20;2.28;97.12
64997;SHT31;51545;51.568;6.998;2022-12-05T11:59:25;2.25;97.10
64997;SHT31;51545;51.568;6.998;2022-12-05T12:13:27;2.11;97.24
64997;SHT31;51545;51.568;6.998;2022-12-05T12:24:36;1.98;97.02
64997;SHT31;51545;51.568;6.998;2022-12-05T12:40:48;1.80;97.08
64997;SHT31;51545;51.568;6.998;2022-12-05T12:51:51;1.62;97.73
64997;SHT31;51545;51.568;6.998;2022-12-05T12:57:18;1.55;97.93
64997;SHT31;51545;51.568;6.998;2022-12-05T13:02:17;1.50;98.23
64997;SHT31;51545;51.568;6.998;2022-12-05T13:07:36;1.40;98.46
64997;SHT31;51545;51.568;6.998;2022-12-05T13:12:58;1.40;98.65
64997;SHT31;51545;51.568;6.998;2022-12-05T13:15:47;1.31;98.64
64997;SHT31;51545;51.568;6.998;2022-12-05T13:18:20;1.28;98.75
64997;SHT31;51545;51.568;6.998;2022-12-05T13:20:49;1.32;98.92
64997;SHT31;51545;51.568;6.998;2022-12-05T13:23:19;1.26;98.93
64997;SHT31;51545;51.568;6.998;2022-12-05T13:25:48;1.24;98.93
64997;SHT31;51545;51.568;6.998;2022-12-05T13:28:37;1.29;99.08
64997;SHT31;51545;51.568;6.998;2022-12-05T13:31:13;1.26;99.08
64997;SHT31;51545;51.568;6.998;2022-12-05T13:33:48;1.29;99.02
64997;SHT31;51545;51.568;6.998;2022-12-05T13:36:18;1.24;99.01
64997;SHT31;51545;51.568;6.998;2022-12-05T13:41:57;1.25;99.20
64997;SHT31;51545;51.568;6.998;2022-12-05T13:47:20;1.25;99.22
64997;SHT31;51545;51.568;6.998;2022-12-05T13:50:02;1.26;99.15
64997;SHT31;51545;51.568;6.998;2022-12-05T13:52:42;1.26;99.20
64997;SHT31;51545;51.568;6.998;2022-12-05T13:55:23;1.21;99.17
64997;SHT31;51545;51.568;6.998;2022-12-05T13:57:51;1.21;99.19
64997;SHT31;51545;51.568;6.998;2022-12-05T14:00:19;1.19;99.24
64997;SHT31;51545;51.568;6.998;2022-12-05T14:02:48;1.19;99.25
64997;SHT31;51545;51.568;6.998;2022-12-05T14:07:44;1.17;99.30
64997;SHT31;51545;51.568;6.998;2022-12-05T14:10:12;1.15;99.33
64997;SHT31;51545;51.568;6.998;2022-12-05T14:12:46;1.12;99.32
64997;SHT31;51545;51.568;6.998;2022-12-05T14:15:36;1.15;99.39
64997;SHT31;51545;51.568;6.998;2022-12-05T14:18:12;1.18;99.42
64997;SHT31;51545;51.568;6.998;2022-12-05T14:31:15;1.15;99.44
64997;SHT31;51545;51.568;6.998;2022-12-05T14:34:23;1.07;99.50
64997;SHT31;51545;51.568;6.998;2022-12-05T14:42:16;1.02;99.67
64997;SHT31;51545;51.568;6.998;2022-12-05T14:44:47;1.04;99.74
64997;SHT31;51545;51.568;6.998;2022-12-05T14:47:48;1.11;99.74
64997;SHT31;51545;51.568;6.998;2022-12-05T14:50:34;1.05;99.72
64997;SHT31;51545;51.568;6.998;2022-12-05T15:06:55;1.11;99.89
64997;SHT31;51545;51.568;6.998;2022-12-05T15:12:05;1.08;99.79
64997;SHT31;51545;51.568;6.998;2022-12-05T15:14:39;1.04;99.82
64997;SHT31;51545;51.568;6.998;2022-12-05T15:17:10;1.09;99.88
64997;SHT31;51545;51.568;6.998;2022-12-05T15:19:43;1.11;99.97
64997;SHT31;51545;51.568;6.998;2022-12-05T15:22:15;1.09;99.90
64997;SHT31;51545;51.568;6.998;2022-12-05T15:24:43;1.05;99.90
64997;SHT31;51545;51.568;6.998;2022-12-05T15:27:09;1.08;99.89
64997;SHT31;51545;51.568;6.998;2022-12-05T15:29:36;1.07;99.94
64997;SHT31;51545;51.568;6.998;2022-12-05T15:32:05;1.02;99.95
64997;SHT31;51545;51.568;6.998;2022-12-05T15:37:42;1.04;99.99
64997;SHT31;51545;51.568;6.998;2022-12-05T15:40:16;1.00;99.99
64997;SHT31;51545;51.568;6.998;2022-12-05T15:42:46;1.01;99.99
64997;SHT31;51545;51.568;6.998;2022-12-05T15:50:14;1.02;99.99
64997;SHT31;51545;51.568;6.998;2022-12-05T15:52:56;1.04;99.99
64997;SHT31;51545;51.568;6.998;2022-12-05T15:58:08;1.02;99.99
64997;SHT31;51545;51.568;6.998;2022-12-05T16:00:36;1.02;99.99
64997;SHT31;51545;51.568;6.998;2022-12-05T16:03:38;1.00;99.99
64997;SHT31;51545;51.568;6.998;2022-12-05T16:09:05;1.00;99.99
64997;SHT31;51545;51.568;6.998;2022-12-05T16:11:33;1.04;99.99
64997;SHT31;51545;51.568;6.998;2022-12-05T16:14:03;1.00;99.99
64997;SHT31;51545;51.568;6.998;2022-12-05T16:16:32;0.97;99.99
64997;SHT31;51545;51.568;6.998;2022-12-05T16:19:05;1.01;99.99
64997;SHT31;51545;51.568;6.998;2022-12-05T16:21:46;1.04;99.99
64997;SHT31;51545;51.568;6.998;2022-12-05T16:24:27;1.01;99.99
64997;SHT31;51545;51.568;6.998;2022-12-05T16:27:13;1.01;99.99
64997;SHT31;51545;51.568;6.998;2022-12-05T16:30:04;1.01;99.99
64997;SHT31;51545;51.568;6.998;2022-12-05T16:32:49;0.95;99.99
64997;SHT31;51545;51.568;6.998;2022-12-05T16:38:12;1.04;99.99
64997;SHT31;51545;51.568;6.998;2022-12-05T16:45:54;1.02;99.99
64997;SHT31;51545;51.568;6.998;2022-12-05T16:48:23;1.02;99.99
64997;SHT31;51545;51.568;6.998;2022-12-05T16:53:42;1.00;99.99
64997;SHT31;51545;51.568;6.998;2022-12-05T16:56:20;1.01;99.99
64997;SHT31;51545;51.568;6.998;2022-12-05T16:58:49;1.05;99.99
64997;SHT31;51545;51.568;6.998;2022-12-05T17:01:16;1.04;99.99
64997;SHT31;51545;51.568;6.998;2022-12-05T17:03:43;1.04;99.99
64997;SHT31;51545;51.568;6.998;2022-12-05T17:06:09;1.08;99.99
64997;SHT31;51545;51.568;6.998;2022-12-05T17:08:35;1.11;99.99
64997;SHT31;51545;51.568;6.998;2022-12-05T17:11:00;1.15;99.99
64997;SHT31;51545;51.568;6.998;2022-12-05T17:13:27;1.14;99.99
64997;SHT31;51545;51.568;6.998;2022-12-05T17:15:54;1.15;99.99
64997;SHT31;51545;51.568;6.998;2022-12-05T17:18:20;1.08;99.99
64997;SHT31;51545;51.568;6.998;2022-12-05T17:20:47;1.09;99.99
64997;SHT31;51545;51.568;6.998;2022-12-05T17:23:16;1.04;99.99
64997;SHT31;51545;51.568;6.998;2022-12-05T17:25:43;1.09;99.99
64997;SHT31;51545;51.568;6.998;2022-12-05T17:28:12;1.08;99.99
64997;SHT31;51545;51.568;6.998;2022-12-05T17:30:38;1.11;99.99
64997;SHT31;51545;51.568;6.998;2022-12-05T17:33:04;1.08;99.99
64997;SHT31;51545;51.568;6.998;2022-12-05T17:35:30;1.02;99.99
64997;SHT31;51545;51.568;6.998;2022-12-05T17:37:56;1.08;99.99
64997;SHT31;51545;51.568;6.998;2022-12-05T17:40:21;1.11;99.99
64997;SHT31;51545;51.568;6.998;2022-12-05T17:42:47;1.09;99.99
64997;SHT31;51545;51.568;6.998;2022-12-05T17:45:13;1.08;99.99
64997;SHT31;51545;51.568;6.998;2022-12-05T17:47:40;1.07;99.99
64997;SHT31;51545;51.568;6.998;2022-12-05T17:50:09;1.08;99.99
64997;SHT31;51545;51.568;6.998;2022-12-05T17:52:37;1.07;99.99
64997;SHT31;51545;51.568;6.998;2022-12-05T17:55:02;1.09;99.99
64997;SHT31;51545;51.568;6.998;2022-12-05T17:57:28;1.12;99.99
64997;SHT31;51545;51.568;6.998;2022-12-05T17:59:54;1.12;99.99
64997;SHT31;51545;51.568;6.998;2022-12-05T18:02:19;1.15;99.99
64997;SHT31;51545;51.568;6.998;2022-12-05T18:04:45;1.12;99.99
64997;SHT31;51545;51.568;6.998;2022-12-05T18:07:10;1.05;99.99
64997;SHT31;51545;51.568;6.998;2022-12-05T18:09:36;1.09;99.99
64997;SHT31;51545;51.568;6.998;2022-12-05T18:12:01;1.05;99.99
64997;SHT31;51545;51.568;6.998;2022-12-05T18:14:27;1.09;99.99
64997;SHT31;51545;51.568;6.998;2022-12-05T18:16:53;1.11;99.99
64997;SHT31;51545;51.568;6.998;2022-12-05T18:19:18;1.09;99.99
64997;SHT31;51545;51.568;6.998;2022-12-05T18:21:44;1.11;99.99
64997;SHT31;51545;51.568;6.998;2022-12-05T18:24:10;1.11;99.99
64997;SHT31;51545;51.568;6.998;2022-12-05T18:26:35;1.09;99.99
64997;SHT31;51545;51.568;6.998;2022-12-05T18:29:01;1.09;99.99
64997;SHT31;51545;51.568;6.998;2022-12-05T18:31:26;1.11;99.99
64997;SHT31;51545;51.568;6.998;2022-12-05T18:33:52;1.09;99.99
64997;SHT31;51545;51.568;6.998;2022-12-05T18:36:18;1.04;99.99
64997;SHT31;51545;51.568;6.998;2022-12-05T18:38:48;1.11;99.99
64997;SHT31;51545;51.568;6.998;2022-12-05T18:41:18;1.08;99.99
64997;SHT31;51545;51.568;6.998;2022-12-05T18:43:47;1.09;99.99
64997;SHT31;51545;51.568;6.998;2022-12-05T18:46:12;1.09;99.99
64997;SHT31;51545;51.568;6.998;2022-12-05T18:48:38;1.07;99.99
64997;SHT31;51545;51.568;6.998;2022-12-05T18:51:13;1.14;99.99
64997;SHT31;51545;51.568;6.998;2022-12-05T18:53:40;1.17;99.99
64997;SHT31;51545;51.568;6.998;2022-12-05T18:56:09;1.12;99.99
64997;SHT31;51545;51.568;6.998;2022-12-05T18:58:36;1.11;99.99
64997;SHT31;51545;51.568;6.998;2022-12-05T19:01:11;1.08;99.99
64997;SHT31;51545;51.568;6.998;2022-12-05T19:03:39;1.14;99.99
64997;SHT31;51545;51.568;6.998;2022-12-05T19:06:18;1.14;99.99
64997;SHT31;51545;51.568;6.998;2022-12-05T19:08:45;1.14;99.99
64997;SHT31;51545;51.568;6.998;2022-12-05T19:11:12;1.11;99.99
64997;SHT31;51545;51.568;6.998;2022-12-05T19:13:39;1.09;99.99